sensor_id;sensor_type;location;lat;lon;timestamp;temperature;humidity
25440;DHT22;13365;52.208;5.488;2024-03-23T00:54:39;11.70;99.90
25440;DHT22;13365;52.208;5.488;2024-03-23T00:57:05;11.40;99.90
25440;DHT22;13365;52.208;5.488;2024-03-23T00:59:30;11.60;99.90
25440;DHT22;13365;52.208;5.488;2024-03-23T01:01:56;11.40;99.90
25440;DHT22;13365;52.208;5.488;2024-03-23T01:04:21;11.50;99.90
25440;DHT22;13365;52.208;5.488;2024-03-23T01:06:47;11.40;99.90
25440;DHT22;13365;52.208;5.488;2024-03-23T01:09:12;11.60;99.90
25440;DHT22;13365;52.208;5.488;2024-03-23T01:11:38;11.50;99.90
25440;DHT22;13365;52.208;5.488;2024-03-23T01:14:05;11.20;99.90
25440;DHT22;13365;52.208;5.488;2024-03-23T01:16:31;11.60;99.90
25440;DHT22;13365;52.208;5.488;2024-03-23T01:18:57;11.30;99.90
25440;DHT22;13365;52.208;5.488;2024-03-23T01:21:22;11.20;99.90
25440;DHT22;13365;52.208;5.488;2024-03-23T01:23:48;10.80;99.90
25440;DHT22;13365;52.208;5.488;2024-03-23T01:26:13;10.90;99.90
25440;DHT22;13365;52.208;5.488;2024-03-23T01:28:38;10.80;99.90
25440;DHT22;13365;52.208;5.488;2024-03-23T01:31:05;10.80;99.90
25440;DHT22;13365;52.208;5.488;2024-03-23T01:33:30;10.80;99.90
25440;DHT22;13365;52.208;5.488;2024-03-23T01:35:56;10.90;99.90
25440;DHT22;13365;52.208;5.488;2024-03-23T01:38:21;10.70;99.90
25440;DHT22;13365;52.208;5.488;2024-03-23T01:40:47;11.00;99.90
25440;DHT22;13365;52.208;5.488;2024-03-23T01:43:12;11.00;99.90
25440;DHT22;13365;52.208;5.488;2024-03-23T01:45:37;11.20;99.90
25440;DHT22;13365;52.208;5.488;2024-03-23T01:48:03;11.30;99.90
25440;DHT22;13365;52.208;5.488;2024-03-23T01:50:29;11.30;99.90
25440;DHT22;13365;52.208;5.488;2024-03-23T01:52:58;11.20;99.90
25440;DHT22;13365;52.208;5.488;2024-03-23T01:55:23;11.00;99.90
25440;DHT22;13365;52.208;5.488;2024-03-23T01:57:50;11.10;99.90
25440;DHT22;13365;52.208;5.488;2024-03-23T02:00:16;10.90;99.90
25440;DHT22;13365;52.208;5.488;2024-03-23T02:02:44;10.70;99.90
25440;DHT22;13365;52.208;5.488;2024-03-23T02:05:11;10.70;99.90
25440;DHT22;13365;52.208;5.488;2024-03-23T02:07:37;10.90;99.90
25440;DHT22;13365;52.208;5.488;2024-03-23T02:10:03;11.00;99.90
25440;DHT22;13365;52.208;5.488;2024-03-23T02:12:28;11.30;99.90
25440;DHT22;13365;52.208;5.488;2024-03-23T02:14:54;11.60;99.90
25440;DHT22;13365;52.208;5.488;2024-03-23T02:17:19;11.60;99.90
25440;DHT22;13365;52.208;5.488;2024-03-23T02:19:45;11.70;99.90
25440;DHT22;13365;52.208;5.488;2024-03-23T02:22:11;11.80;99.90
25440;DHT22;13365;52.208;5.488;2024-03-23T02:24:37;11.80;99.90
25440;DHT22;13365;52.208;5.488;2024-03-23T02:27:02;11.70;99.90
25440;DHT22;13365;52.208;5.488;2024-03-23T02:29:28;11.70;99.90
25440;DHT22;13365;52.208;5.488;2024-03-23T02:31:53;11.60;99.90
25440;DHT22;13365;52.208;5.488;2024-03-23T02:34:19;11.60;99.90
25440;DHT22;13365;52.208;5.488;2024-03-23T02:36:44;11.20;99.90
25440;DHT22;13365;52.208;5.488;2024-03-23T02:39:10;11.20;99.90
25440;DHT22;13365;52.208;5.488;2024-03-23T02:41:36;10.90;99.90
25440;DHT22;13365;52.208;5.488;2024-03-23T02:44:01;10.90;99.90
25440;DHT22;13365;52.208;5.488;2024-03-23T02:46:27;10.80;99.90
25440;DHT22;13365;52.208;5.488;2024-03-23T02:48:52;10.80;99.90
25440;DHT22;13365;52.208;5.488;2024-03-23T02:51:18;10.50;99.90
25440;DHT22;13365;52.208;5.488;2024-03-23T02:53:43;10.40;99.90
25440;DHT22;13365;52.208;5.488;2024-03-23T02:56:09;10.70;99.90
25440;DHT22;13365;52.208;5.488;2024-03-23T02:58:34;10.60;99.90
25440;DHT22;13365;52.208;5.488;2024-03-23T03:01:00;10.30;99.90
25440;DHT22;13365;52.208;5.488;2024-03-23T03:03:25;10.10;99.90
25440;DHT22;13365;52.208;5.488;2024-03-23T03:05:57;10.30;99.90
25440;DHT22;13365;52.208;5.488;2024-03-23T03:08:22;10.20;99.90
25440;DHT22;13365;52.208;5.488;2024-03-23T03:10:48;10.20;99.90
25440;DHT22;13365;52.208;5.488;2024-03-23T03:13:13;10.10;99.90
25440;DHT22;13365;52.208;5.488;2024-03-23T03:15:40;9.80;99.90
25440;DHT22;13365;52.208;5.488;2024-03-23T03:18:05;9.90;99.90
25440;DHT22;13365;52.208;5.488;2024-03-23T03:20:31;9.70;99.90
25440;DHT22;13365;52.208;5.488;2024-03-23T03:22:57;9.70;99.90
25440;DHT22;13365;52.208;5.488;2024-03-23T03:25:22;10.00;99.90
25440;DHT22;13365;52.208;5.488;2024-03-23T03:27:48;10.00;99.90
25440;DHT22;13365;52.208;5.488;2024-03-23T03:30:13;9.90;99.90
25440;DHT22;13365;52.208;5.488;2024-03-23T03:32:38;10.20;99.90
25440;DHT22;13365;52.208;5.488;2024-03-23T03:35:04;10.20;99.90
25440;DHT22;13365;52.208;5.488;2024-03-23T03:37:30;10.40;99.90
25440;DHT22;13365;52.208;5.488;2024-03-23T03:39:55;10.60;99.90
25440;DHT22;13365;52.208;5.488;2024-03-23T03:42:21;10.80;99.90
25440;DHT22;13365;52.208;5.488;2024-03-23T03:44:46;10.90;99.90
25440;DHT22;13365;52.208;5.488;2024-03-23T03:47:12;11.00;99.90
25440;DHT22;13365;52.208;5.488;2024-03-23T03:49:37;10.90;99.90
25440;DHT22;13365;52.208;5.488;2024-03-23T03:52:03;11.00;99.90
25440;DHT22;13365;52.208;5.488;2024-03-23T03:54:28;10.90;99.90
25440;DHT22;13365;52.208;5.488;2024-03-23T03:56:54;10.80;99.90
25440;DHT22;13365;52.208;5.488;2024-03-23T03:59:19;10.80;99.90
25440;DHT22;13365;52.208;5.488;2024-03-23T04:01:45;10.80;99.90
25440;DHT22;13365;52.208;5.488;2024-03-23T04:04:11;10.70;99.90
25440;DHT22;13365;52.208;5.488;2024-03-23T04:06:36;10.70;99.90
25440;DHT22;13365;52.208;5.488;2024-03-23T04:09:02;10.90;99.90
25440;DHT22;13365;52.208;5.488;2024-03-23T04:11:27;11.00;99.90
25440;DHT22;13365;52.208;5.488;2024-03-23T04:13:53;10.90;99.90
25440;DHT22;13365;52.208;5.488;2024-03-23T04:16:28;10.80;99.90
25440;DHT22;13365;52.208;5.488;2024-03-23T04:18:54;10.70;99.90
25440;DHT22;13365;52.208;5.488;2024-03-23T04:21:19;10.70;99.90
25440;DHT22;13365;52.208;5.488;2024-03-23T04:23:45;10.80;99.90
25440;DHT22;13365;52.208;5.488;2024-03-23T04:26:11;10.60;99.90
25440;DHT22;13365;52.208;5.488;2024-03-23T04:28:36;10.70;99.90
25440;DHT22;13365;52.208;5.488;2024-03-23T04:31:04;10.40;99.90
25440;DHT22;13365;52.208;5.488;2024-03-23T04:33:30;10.30;99.90
25440;DHT22;13365;52.208;5.488;2024-03-23T04:35:56;10.50;99.90
25440;DHT22;13365;52.208;5.488;2024-03-23T04:38:22;10.50;99.90
25440;DHT22;13365;52.208;5.488;2024-03-23T04:40:57;9.90;99.90
25440;DHT22;13365;52.208;5.488;2024-03-23T04:43:23;9.70;99.90
25440;DHT22;13365;52.208;5.488;2024-03-23T04:45:49;9.60;99.90
25440;DHT22;13365;52.208;5.488;2024-03-23T04:48:14;9.80;99.90
25440;DHT22;13365;52.208;5.488;2024-03-23T04:50:39;9.90;99.90
25440;DHT22;13365;52.208;5.488;2024-03-23T04:53:06;9.70;99.90
25440;DHT22;13365;52.208;5.488;2024-03-23T04:55:32;9.70;99.90
25440;DHT22;13365;52.208;5.488;2024-03-23T04:57:57;9.80;99.90
25440;DHT22;13365;52.208;5.488;2024-03-23T05:00:23;9.90;99.90
25440;DHT22;13365;52.208;5.488;2024-03-23T05:02:48;10.00;99.90
25440;DHT22;13365;52.208;5.488;2024-03-23T05:05:14;10.00;99.90
25440;DHT22;13365;52.208;5.488;2024-03-23T05:07:39;10.20;99.90
25440;DHT22;13365;52.208;5.488;2024-03-23T05:10:05;10.20;99.90
25440;DHT22;13365;52.208;5.488;2024-03-23T05:12:30;10.00;99.90
25440;DHT22;13365;52.208;5.488;2024-03-23T05:14:57;10.10;99.90
25440;DHT22;13365;52.208;5.488;2024-03-23T05:17:22;10.20;99.90
25440;DHT22;13365;52.208;5.488;2024-03-23T05:19:48;10.10;99.90
25440;DHT22;13365;52.208;5.488;2024-03-23T05:22:13;10.10;99.90
25440;DHT22;13365;52.208;5.488;2024-03-23T05:24:39;9.80;99.90
25440;DHT22;13365;52.208;5.488;2024-03-23T05:27:04;9.90;99.90
25440;DHT22;13365;52.208;5.488;2024-03-23T05:29:30;9.60;99.90
25440;DHT22;13365;52.208;5.488;2024-03-23T05:31:55;9.60;99.90
25440;DHT22;13365;52.208;5.488;2024-03-23T05:34:22;9.60;99.90
25440;DHT22;13365;52.208;5.488;2024-03-23T05:36:47;9.60;99.90
25440;DHT22;13365;52.208;5.488;2024-03-23T05:39:14;9.60;99.90
25440;DHT22;13365;52.208;5.488;2024-03-23T05:41:42;9.60;99.90
25440;DHT22;13365;52.208;5.488;2024-03-23T05:44:07;9.40;99.90
25440;DHT22;13365;52.208;5.488;2024-03-23T05:46:33;9.20;99.90
25440;DHT22;13365;52.208;5.488;2024-03-23T05:49:00;9.40;99.90
25440;DHT22;13365;52.208;5.488;2024-03-23T05:51:26;9.40;99.90
25440;DHT22;13365;52.208;5.488;2024-03-23T05:53:52;9.20;99.90
25440;DHT22;13365;52.208;5.488;2024-03-23T05:56:19;9.10;99.90
25440;DHT22;13365;52.208;5.488;2024-03-23T05:58:44;9.40;99.90
25440;DHT22;13365;52.208;5.488;2024-03-23T06:01:10;9.60;99.90
25440;DHT22;13365;52.208;5.488;2024-03-23T06:03:35;9.90;99.90
25440;DHT22;13365;52.208;5.488;2024-03-23T06:06:01;10.20;99.90
25440;DHT22;13365;52.208;5.488;2024-03-23T06:08:26;10.10;99.90
25440;DHT22;13365;52.208;5.488;2024-03-23T06:10:52;10.20;99.90
25440;DHT22;13365;52.208;5.488;2024-03-23T06:13:17;10.30;99.90
25440;DHT22;13365;52.208;5.488;2024-03-23T06:15:50;10.50;99.90
25440;DHT22;13365;52.208;5.488;2024-03-23T06:18:15;10.30;99.90
25440;DHT22;13365;52.208;5.488;2024-03-23T06:20:41;10.40;99.90
25440;DHT22;13365;52.208;5.488;2024-03-23T06:23:06;10.50;99.90
25440;DHT22;13365;52.208;5.488;2024-03-23T06:25:32;10.60;99.90
25440;DHT22;13365;52.208;5.488;2024-03-23T06:27:57;10.40;99.90
25440;DHT22;13365;52.208;5.488;2024-03-23T06:30:23;10.50;99.90
25440;DHT22;13365;52.208;5.488;2024-03-23T06:32:49;10.60;99.90
25440;DHT22;13365;52.208;5.488;2024-03-23T06:35:14;10.60;99.90
25440;DHT22;13365;52.208;5.488;2024-03-23T06:37:40;10.70;99.90
25440;DHT22;13365;52.208;5.488;2024-03-23T06:40:06;10.90;99.90
25440;DHT22;13365;52.208;5.488;2024-03-23T06:42:35;10.90;99.90
25440;DHT22;13365;52.208;5.488;2024-03-23T06:45:00;10.60;99.90
25440;DHT22;13365;52.208;5.488;2024-03-23T06:47:26;10.40;99.90
25440;DHT22;13365;52.208;5.488;2024-03-23T06:49:51;9.90;99.90
25440;DHT22;13365;52.208;5.488;2024-03-23T06:52:17;9.90;99.90
25440;DHT22;13365;52.208;5.488;2024-03-23T06:54:42;10.00;99.90
25440;DHT22;13365;52.208;5.488;2024-03-23T06:57:10;10.00;99.90
25440;DHT22;13365;52.208;5.488;2024-03-23T06:59:37;10.00;99.90
25440;DHT22;13365;52.208;5.488;2024-03-23T07:02:04;10.20;99.90
25440;DHT22;13365;52.208;5.488;2024-03-23T07:04:29;10.20;99.90
25440;DHT22;13365;52.208;5.488;2024-03-23T07:06:55;10.00;99.90
25440;DHT22;13365;52.208;5.488;2024-03-23T07:09:20;10.00;99.90
25440;DHT22;13365;52.208;5.488;2024-03-23T07:11:50;9.90;99.90
25440;DHT22;13365;52.208;5.488;2024-03-23T07:14:15;9.90;99.90
25440;DHT22;13365;52.208;5.488;2024-03-23T07:16:41;9.80;99.90
25440;DHT22;13365;52.208;5.488;2024-03-23T07:19:06;9.80;99.90
25440;DHT22;13365;52.208;5.488;2024-03-23T07:21:32;9.80;99.90
25440;DHT22;13365;52.208;5.488;2024-03-23T07:23:57;10.10;99.90
25440;DHT22;13365;52.208;5.488;2024-03-23T07:26:23;9.90;99.90
25440;DHT22;13365;52.208;5.488;2024-03-23T07:28:48;10.10;99.90
25440;DHT22;13365;52.208;5.488;2024-03-23T07:31:14;10.00;99.90
25440;DHT22;13365;52.208;5.488;2024-03-23T07:33:45;9.90;99.90
25440;DHT22;13365;52.208;5.488;2024-03-23T07:36:11;9.60;99.90
25440;DHT22;13365;52.208;5.488;2024-03-23T07:38:37;9.50;99.90
25440;DHT22;13365;52.208;5.488;2024-03-23T07:41:06;9.90;99.90
25440;DHT22;13365;52.208;5.488;2024-03-23T07:43:32;10.00;99.90
25440;DHT22;13365;52.208;5.488;2024-03-23T07:45:58;10.20;99.90
25440;DHT22;13365;52.208;5.488;2024-03-23T07:48:23;10.40;99.90
25440;DHT22;13365;52.208;5.488;2024-03-23T07:53:27;10.80;99.90
25440;DHT22;13365;52.208;5.488;2024-03-23T07:55:56;10.80;99.90
25440;DHT22;13365;52.208;5.488;2024-03-23T07:58:22;10.90;99.90
25440;DHT22;13365;52.208;5.488;2024-03-23T08:00:48;10.60;99.90
25440;DHT22;13365;52.208;5.488;2024-03-23T08:03:13;10.70;99.90
25440;DHT22;13365;52.208;5.488;2024-03-23T08:05:39;10.70;99.90
25440;DHT22;13365;52.208;5.488;2024-03-23T08:08:04;10.70;99.90
25440;DHT22;13365;52.208;5.488;2024-03-23T08:10:30;10.40;99.90
25440;DHT22;13365;52.208;5.488;2024-03-23T08:12:55;10.30;99.90
25440;DHT22;13365;52.208;5.488;2024-03-23T08:15:21;10.20;99.90
25440;DHT22;13365;52.208;5.488;2024-03-23T08:17:46;10.60;99.90
25440;DHT22;13365;52.208;5.488;2024-03-23T08:20:12;10.90;99.90
25440;DHT22;13365;52.208;5.488;2024-03-23T08:22:37;11.10;99.90
25440;DHT22;13365;52.208;5.488;2024-03-23T08:25:03;11.30;99.90
25440;DHT22;13365;52.208;5.488;2024-03-23T08:27:28;11.10;99.90
25440;DHT22;13365;52.208;5.488;2024-03-23T08:29:54;11.20;99.90
25440;DHT22;13365;52.208;5.488;2024-03-23T08:32:19;11.40;99.90
25440;DHT22;13365;52.208;5.488;2024-03-23T08:34:44;11.70;99.90
25440;DHT22;13365;52.208;5.488;2024-03-23T08:37:10;11.50;99.90
25440;DHT22;13365;52.208;5.488;2024-03-23T08:39:35;11.40;99.90
25440;DHT22;13365;52.208;5.488;2024-03-23T08:42:01;11.50;99.90
25440;DHT22;13365;52.208;5.488;2024-03-23T08:44:26;11.60;99.90
25440;DHT22;13365;52.208;5.488;2024-03-23T08:46:52;11.60;99.90
25440;DHT22;13365;52.208;5.488;2024-03-23T08:49:20;11.40;99.90
25440;DHT22;13365;52.208;5.488;2024-03-23T08:51:46;11.00;99.90
25440;DHT22;13365;52.208;5.488;2024-03-23T08:54:11;10.90;99.90
25440;DHT22;13365;52.208;5.488;2024-03-23T08:56:37;11.00;99.90
25440;DHT22;13365;52.208;5.488;2024-03-23T08:59:02;11.30;99.90
25440;DHT22;13365;52.208;5.488;2024-03-23T09:01:28;11.40;99.90
25440;DHT22;13365;52.208;5.488;2024-03-23T09:03:54;11.60;99.90
25440;DHT22;13365;52.208;5.488;2024-03-23T09:06:19;11.80;99.90
25440;DHT22;13365;52.208;5.488;2024-03-23T09:08:44;11.70;99.90
25440;DHT22;13365;52.208;5.488;2024-03-23T09:11:12;11.40;99.90
25440;DHT22;13365;52.208;5.488;2024-03-23T09:13:38;11.80;99.90
25440;DHT22;13365;52.208;5.488;2024-03-23T09:16:04;12.00;99.90
25440;DHT22;13365;52.208;5.488;2024-03-23T09:18:33;11.90;99.90
25440;DHT22;13365;52.208;5.488;2024-03-23T09:21:00;11.60;99.90
25440;DHT22;13365;52.208;5.488;2024-03-23T09:23:26;11.90;99.90
25440;DHT22;13365;52.208;5.488;2024-03-23T09:25:51;12.20;99.90
25440;DHT22;13365;52.208;5.488;2024-03-23T09:28:17;11.90;99.90
25440;DHT22;13365;52.208;5.488;2024-03-23T09:30:42;12.00;99.90
25440;DHT22;13365;52.208;5.488;2024-03-23T09:33:08;12.20;99.90
25440;DHT22;13365;52.208;5.488;2024-03-23T09:35:40;11.80;99.80
25440;DHT22;13365;52.208;5.488;2024-03-23T09:38:06;11.90;99.90
25440;DHT22;13365;52.208;5.488;2024-03-23T09:40:39;12.30;99.90
25440;DHT22;13365;52.208;5.488;2024-03-23T09:43:06;12.20;99.90
25440;DHT22;13365;52.208;5.488;2024-03-23T09:45:31;12.10;99.90
25440;DHT22;13365;52.208;5.488;2024-03-23T09:47:59;12.20;99.90
25440;DHT22;13365;52.208;5.488;2024-03-23T09:50:24;12.50;99.90
25440;DHT22;13365;52.208;5.488;2024-03-23T09:52:50;13.00;99.90
25440;DHT22;13365;52.208;5.488;2024-03-23T09:55:15;13.40;99.90
25440;DHT22;13365;52.208;5.488;2024-03-23T09:57:41;13.10;98.30
25440;DHT22;13365;52.208;5.488;2024-03-23T10:00:07;12.90;98.90
25440;DHT22;13365;52.208;5.488;2024-03-23T10:02:36;12.30;98.80
25440;DHT22;13365;52.208;5.488;2024-03-23T10:05:02;12.00;99.80
25440;DHT22;13365;52.208;5.488;2024-03-23T10:07:27;11.80;99.10
25440;DHT22;13365;52.208;5.488;2024-03-23T10:09:56;11.50;98.50
25440;DHT22;13365;52.208;5.488;2024-03-23T10:12:22;11.10;99.90
25440;DHT22;13365;52.208;5.488;2024-03-23T10:14:49;10.40;99.90
25440;DHT22;13365;52.208;5.488;2024-03-23T10:17:16;9.60;99.90
25440;DHT22;13365;52.208;5.488;2024-03-23T10:19:48;9.50;99.90
25440;DHT22;13365;52.208;5.488;2024-03-23T10:22:16;9.40;99.90
25440;DHT22;13365;52.208;5.488;2024-03-23T10:24:42;9.10;99.90
25440;DHT22;13365;52.208;5.488;2024-03-23T10:27:08;9.00;99.90
25440;DHT22;13365;52.208;5.488;2024-03-23T10:29:33;9.10;99.90
25440;DHT22;13365;52.208;5.488;2024-03-23T10:32:08;9.00;99.90
25440;DHT22;13365;52.208;5.488;2024-03-23T10:34:34;9.30;99.90
25440;DHT22;13365;52.208;5.488;2024-03-23T10:37:01;9.40;99.90
25440;DHT22;13365;52.208;5.488;2024-03-23T10:39:27;9.70;99.90
25440;DHT22;13365;52.208;5.488;2024-03-23T10:41:52;10.00;99.90
25440;DHT22;13365;52.208;5.488;2024-03-23T10:44:18;10.00;99.90
25440;DHT22;13365;52.208;5.488;2024-03-23T10:46:44;10.20;99.90
25440;DHT22;13365;52.208;5.488;2024-03-23T10:49:10;10.20;99.90
25440;DHT22;13365;52.208;5.488;2024-03-23T10:51:36;10.30;99.90
25440;DHT22;13365;52.208;5.488;2024-03-23T10:54:03;10.30;99.90
25440;DHT22;13365;52.208;5.488;2024-03-23T10:56:29;10.40;99.90
25440;DHT22;13365;52.208;5.488;2024-03-23T10:58:59;10.40;99.90
25440;DHT22;13365;52.208;5.488;2024-03-23T11:01:26;10.60;99.90
25440;DHT22;13365;52.208;5.488;2024-03-23T11:03:52;10.80;99.90
25440;DHT22;13365;52.208;5.488;2024-03-23T11:06:36;10.80;99.90
25440;DHT22;13365;52.208;5.488;2024-03-23T11:09:01;10.60;99.90
25440;DHT22;13365;52.208;5.488;2024-03-23T11:11:27;10.50;99.90
25440;DHT22;13365;52.208;5.488;2024-03-23T11:13:54;10.60;99.90
25440;DHT22;13365;52.208;5.488;2024-03-23T11:18:49;10.90;99.90
25440;DHT22;13365;52.208;5.488;2024-03-23T11:24:14;10.20;99.90
25440;DHT22;13365;52.208;5.488;2024-03-23T11:26:40;10.40;99.90
25440;DHT22;13365;52.208;5.488;2024-03-23T11:29:09;10.30;99.90
25440;DHT22;13365;52.208;5.488;2024-03-23T11:31:37;10.40;99.90
25440;DHT22;13365;52.208;5.488;2024-03-23T11:34:05;10.60;99.90
25440;DHT22;13365;52.208;5.488;2024-03-23T11:36:32;10.70;99.90
25440;DHT22;13365;52.208;5.488;2024-03-23T11:38:57;10.40;99.90
25440;DHT22;13365;52.208;5.488;2024-03-23T11:41:23;10.50;99.90
25440;DHT22;13365;52.208;5.488;2024-03-23T11:43:48;10.60;99.90
25440;DHT22;13365;52.208;5.488;2024-03-23T11:46:21;10.90;99.90
25440;DHT22;13365;52.208;5.488;2024-03-23T11:48:50;11.20;99.90
25440;DHT22;13365;52.208;5.488;2024-03-23T11:51:17;11.00;99.90
25440;DHT22;13365;52.208;5.488;2024-03-23T11:53:42;11.20;99.90
25440;DHT22;13365;52.208;5.488;2024-03-23T11:56:08;11.40;99.90
25440;DHT22;13365;52.208;5.488;2024-03-23T11:58:34;11.50;99.90
25440;DHT22;13365;52.208;5.488;2024-03-23T12:01:00;11.10;98.50
25440;DHT22;13365;52.208;5.488;2024-03-23T12:03:30;10.90;99.20
25440;DHT22;13365;52.208;5.488;2024-03-23T12:06:00;11.20;99.90
25440;DHT22;13365;52.208;5.488;2024-03-23T12:10:53;11.90;99.50
25440;DHT22;13365;52.208;5.488;2024-03-23T12:13:29;11.80;96.90
25440;DHT22;13365;52.208;5.488;2024-03-23T12:15:54;11.30;95.70
25440;DHT22;13365;52.208;5.488;2024-03-23T12:18:23;11.20;95.90
25440;DHT22;13365;52.208;5.488;2024-03-23T12:20:49;11.10;97.30
25440;DHT22;13365;52.208;5.488;2024-03-23T12:23:14;11.30;98.10
25440;DHT22;13365;52.208;5.488;2024-03-23T12:25:40;11.30;98.10
25440;DHT22;13365;52.208;5.488;2024-03-23T12:28:06;11.70;97.00
25440;DHT22;13365;52.208;5.488;2024-03-23T12:30:35;12.10;97.30
25440;DHT22;13365;52.208;5.488;2024-03-23T12:33:01;12.00;95.10
25440;DHT22;13365;52.208;5.488;2024-03-23T12:35:27;11.90;94.60
25440;DHT22;13365;52.208;5.488;2024-03-23T12:37:52;12.00;95.40
25440;DHT22;13365;52.208;5.488;2024-03-23T12:40:18;12.00;94.00
25440;DHT22;13365;52.208;5.488;2024-03-23T12:42:43;11.80;94.40
25440;DHT22;13365;52.208;5.488;2024-03-23T12:45:09;11.90;94.60
25440;DHT22;13365;52.208;5.488;2024-03-23T12:47:34;11.50;93.90
25440;DHT22;13365;52.208;5.488;2024-03-23T12:50:00;11.20;94.60
25440;DHT22;13365;52.208;5.488;2024-03-23T12:52:25;10.90;95.60
25440;DHT22;13365;52.208;5.488;2024-03-23T12:54:54;11.10;96.30
25440;DHT22;13365;52.208;5.488;2024-03-23T12:57:21;11.00;96.10
25440;DHT22;13365;52.208;5.488;2024-03-23T12:59:47;11.20;95.80
25440;DHT22;13365;52.208;5.488;2024-03-23T13:02:16;11.20;96.20
25440;DHT22;13365;52.208;5.488;2024-03-23T13:04:41;11.40;96.50
25440;DHT22;13365;52.208;5.488;2024-03-23T13:07:07;11.50;96.10
25440;DHT22;13365;52.208;5.488;2024-03-23T13:09:32;11.30;95.50
25440;DHT22;13365;52.208;5.488;2024-03-23T13:11:58;11.20;96.20
25440;DHT22;13365;52.208;5.488;2024-03-23T13:14:23;11.40;96.60
25440;DHT22;13365;52.208;5.488;2024-03-23T13:16:49;11.40;95.60
25440;DHT22;13365;52.208;5.488;2024-03-23T13:19:14;11.30;95.20
25440;DHT22;13365;52.208;5.488;2024-03-23T13:21:40;11.60;95.90
25440;DHT22;13365;52.208;5.488;2024-03-23T13:24:05;11.80;97.50
25440;DHT22;13365;52.208;5.488;2024-03-23T13:26:31;11.70;96.30
25440;DHT22;13365;52.208;5.488;2024-03-23T13:28:56;11.60;93.70
25440;DHT22;13365;52.208;5.488;2024-03-23T13:31:22;11.30;93.20
25440;DHT22;13365;52.208;5.488;2024-03-23T13:33:47;11.30;93.90
25440;DHT22;13365;52.208;5.488;2024-03-23T13:36:13;11.30;94.10
25440;DHT22;13365;52.208;5.488;2024-03-23T13:38:38;11.30;94.10
25440;DHT22;13365;52.208;5.488;2024-03-23T13:41:04;11.20;95.00
25440;DHT22;13365;52.208;5.488;2024-03-23T13:43:31;11.50;96.70
25440;DHT22;13365;52.208;5.488;2024-03-23T13:45:57;11.90;95.90
25440;DHT22;13365;52.208;5.488;2024-03-23T13:48:24;12.00;94.90
25440;DHT22;13365;52.208;5.488;2024-03-23T13:50:56;12.20;94.40
25440;DHT22;13365;52.208;5.488;2024-03-23T13:53:22;12.10;93.80
25440;DHT22;13365;52.208;5.488;2024-03-23T13:55:49;12.30;94.10
25440;DHT22;13365;52.208;5.488;2024-03-23T13:58:14;12.00;94.90
25440;DHT22;13365;52.208;5.488;2024-03-23T14:00:40;11.60;98.10
25440;DHT22;13365;52.208;5.488;2024-03-23T14:03:07;10.90;98.90
25440;DHT22;13365;52.208;5.488;2024-03-23T14:05:33;10.70;99.90
25440;DHT22;13365;52.208;5.488;2024-03-23T14:07:58;10.50;99.90
25440;DHT22;13365;52.208;5.488;2024-03-23T14:10:24;10.60;99.90
25440;DHT22;13365;52.208;5.488;2024-03-23T14:12:49;10.90;99.90
25440;DHT22;13365;52.208;5.488;2024-03-23T14:15:15;11.10;99.90
25440;DHT22;13365;52.208;5.488;2024-03-23T14:17:40;11.10;99.90
25440;DHT22;13365;52.208;5.488;2024-03-23T14:20:06;11.40;99.90
25440;DHT22;13365;52.208;5.488;2024-03-23T14:22:34;11.70;99.90
25440;DHT22;13365;52.208;5.488;2024-03-23T14:24:59;11.90;99.10
25440;DHT22;13365;52.208;5.488;2024-03-23T14:27:25;11.40;99.10
25440;DHT22;13365;52.208;5.488;2024-03-23T14:29:50;11.20;99.90
25440;DHT22;13365;52.208;5.488;2024-03-23T14:32:16;11.60;99.90
25440;DHT22;13365;52.208;5.488;2024-03-23T14:34:41;11.60;99.90
25440;DHT22;13365;52.208;5.488;2024-03-23T14:37:07;12.00;99.90
25440;DHT22;13365;52.208;5.488;2024-03-23T14:39:33;12.10;99.20
25440;DHT22;13365;52.208;5.488;2024-03-23T14:42:02;12.10;98.20
25440;DHT22;13365;52.208;5.488;2024-03-23T14:44:28;12.30;97.70
25440;DHT22;13365;52.208;5.488;2024-03-23T14:46:54;12.70;97.10
25440;DHT22;13365;52.208;5.488;2024-03-23T14:49:20;12.60;94.80
25440;DHT22;13365;52.208;5.488;2024-03-23T14:51:46;12.40;94.20
25440;DHT22;13365;52.208;5.488;2024-03-23T14:54:11;12.60;93.80
25440;DHT22;13365;52.208;5.488;2024-03-23T14:56:38;12.40;94.20
25440;DHT22;13365;52.208;5.488;2024-03-23T14:59:04;12.20;93.60
25440;DHT22;13365;52.208;5.488;2024-03-23T15:01:29;12.20;93.00
25440;DHT22;13365;52.208;5.488;2024-03-23T15:03:54;12.40;93.00
25440;DHT22;13365;52.208;5.488;2024-03-23T15:06:20;12.20;92.20
25440;DHT22;13365;52.208;5.488;2024-03-23T15:08:45;11.80;92.40
25440;DHT22;13365;52.208;5.488;2024-03-23T15:11:11;11.50;92.80
25440;DHT22;13365;52.208;5.488;2024-03-23T15:13:37;11.60;93.60
25440;DHT22;13365;52.208;5.488;2024-03-23T15:16:03;11.90;94.40
25440;DHT22;13365;52.208;5.488;2024-03-23T15:18:31;12.00;94.80
25440;DHT22;13365;52.208;5.488;2024-03-23T15:21:01;12.30;94.50
25440;DHT22;13365;52.208;5.488;2024-03-23T15:23:28;12.60;94.70
25440;DHT22;13365;52.208;5.488;2024-03-23T15:26:02;12.90;95.50
25440;DHT22;13365;52.208;5.488;2024-03-23T15:28:29;13.40;93.20
25440;DHT22;13365;52.208;5.488;2024-03-23T15:31:06;13.70;92.30
25440;DHT22;13365;52.208;5.488;2024-03-23T15:33:32;14.20;92.00
25440;DHT22;13365;52.208;5.488;2024-03-23T15:36:01;13.70;91.20
25440;DHT22;13365;52.208;5.488;2024-03-23T15:38:27;13.50;91.70
25440;DHT22;13365;52.208;5.488;2024-03-23T15:40:52;13.00;91.10
25440;DHT22;13365;52.208;5.488;2024-03-23T15:43:18;12.50;91.50
25440;DHT22;13365;52.208;5.488;2024-03-23T15:45:43;11.90;92.60
25440;DHT22;13365;52.208;5.488;2024-03-23T15:48:09;11.70;93.70
25440;DHT22;13365;52.208;5.488;2024-03-23T15:50:34;11.50;93.40
25440;DHT22;13365;52.208;5.488;2024-03-23T15:53:00;11.30;93.80
25440;DHT22;13365;52.208;5.488;2024-03-23T15:55:25;11.30;94.90
25440;DHT22;13365;52.208;5.488;2024-03-23T15:57:51;11.10;94.70
25440;DHT22;13365;52.208;5.488;2024-03-23T16:00:17;11.50;95.70
25440;DHT22;13365;52.208;5.488;2024-03-23T16:02:43;12.10;95.70
25440;DHT22;13365;52.208;5.488;2024-03-23T16:05:08;12.30;94.60
25440;DHT22;13365;52.208;5.488;2024-03-23T16:07:36;11.90;94.40
25440;DHT22;13365;52.208;5.488;2024-03-23T16:10:02;12.10;95.20
25440;DHT22;13365;52.208;5.488;2024-03-23T16:12:30;12.40;95.50
25440;DHT22;13365;52.208;5.488;2024-03-23T16:14:56;12.30;94.80
25440;DHT22;13365;52.208;5.488;2024-03-23T16:17:21;12.10;95.40
25440;DHT22;13365;52.208;5.488;2024-03-23T16:19:47;12.40;95.60
25440;DHT22;13365;52.208;5.488;2024-03-23T16:22:12;12.30;94.70
25440;DHT22;13365;52.208;5.488;2024-03-23T16:24:38;12.30;95.50
25440;DHT22;13365;52.208;5.488;2024-03-23T16:27:03;12.10;96.40
25440;DHT22;13365;52.208;5.488;2024-03-23T16:29:29;11.60;97.70